Time;durP1;ratioP1;P1;durP2;ratioP2;P2;SDS_P1;SDS_P2;PMS_P1;PMS_P2;Temp;Humidity;BMP_temperature;BMP_pressure;BME280_temperature;BME280_humidity;BME280_pressure;Samples;Min_cycle;Max_cycle;Signal;HPM_P1;HPM_P2
2023/12/06 00:01:56;;;;;;;0.60;0.60;;;;;;;7.67;99.23;96825.59;4987758;28;20058;-70
2023/12/06 00:04:23;;;;;;;0.60;0.60;;;;;;;7.69;99.02;96818.56;4987393;28;20050;-70
2023/12/06 00:06:50;;;;;;;0.60;0.60;;;;;;;7.08;99.84;96754.03;4987607;28;20058;-71
2023/12/06 00:09:17;;;;;;;0.60;0.60;;;;;;;7.64;100.00;96821.59;4993675;28;20057;-71
2023/12/06 00:11:44;;;;;;;0.60;0.60;;;;;;;7.57;99.73;96813.13;5007260;28;20056;-71
2023/12/06 00:14:11;;;;;;;0.60;0.60;;;;;;;7.68;99.50;96825.22;5005378;28;20069;-70
2023/12/06 00:16:41;;;;;;;0.60;0.60;;;;;;;7.82;99.78;96821.22;5005295;28;20137;-71
2023/12/06 00:19:08;;;;;;;0.68;0.68;;;;;;;7.82;98.66;96807.44;5005565;28;20060;-71
2023/12/06 00:21:35;;;;;;;0.60;0.60;;;;;;;7.70;99.15;96809.13;5004904;28;20050;-70
2023/12/06 00:24:04;;;;;;;0.70;0.70;;;;;;;7.74;99.58;96809.22;4990227;28;20113;-70
2023/12/06 00:26:31;;;;;;;0.60;0.60;;;;;;;7.70;100.00;96798.09;4987205;28;20467;-71
2023/12/06 00:28:58;;;;;;;0.70;0.70;;;;;;;7.71;100.00;96799.69;4986850;28;20144;-71
2023/12/06 00:31:25;;;;;;;0.60;0.60;;;;;;;7.34;99.74;96743.28;4986967;28;20058;-70
2023/12/06 00:33:52;;;;;;;0.70;0.70;;;;;;;7.71;99.69;96799.69;4986843;28;20050;-71
2023/12/06 00:36:20;;;;;;;0.60;0.60;;;;;;;7.53;100.00;96776.44;4986797;28;20046;-70
2023/12/06 00:38:46;;;;;;;0.60;0.60;;;;;;;7.23;100.00;96705.63;4986514;28;20062;-72
2023/12/06 00:41:13;;;;;;;0.70;0.70;;;;;;;7.77;100.00;96791.16;4986639;28;20112;-70
2023/12/06 00:43:41;;;;;;;0.60;0.60;;;;;;;7.49;99.82;96745.22;4986963;28;20056;-71
2023/12/06 00:46:07;;;;;;;0.70;0.70;;;;;;;7.89;99.53;96777.28;4984936;28;20050;-70
2023/12/06 00:48:34;;;;;;;0.60;0.60;;;;;;;7.89;99.80;96785.53;4986735;28;20082;-71
2023/12/06 00:51:01;;;;;;;0.60;0.60;;;;;;;7.29;99.15;96704.19;4986564;28;20062;-71
2023/12/06 00:53:30;;;;;;;0.60;0.60;;;;;;;6.56;100.00;96698.41;4986853;28;20050;-71
2023/12/06 00:55:56;;;;;;;0.57;0.57;;;;;;;7.36;100.00;96781.50;4986533;28;20054;-71
2023/12/06 00:58:23;;;;;;;0.70;0.70;;;;;;;7.47;100.00;96786.13;4986770;28;20060;-71
2023/12/06 01:00:50;;;;;;;0.60;0.60;;;;;;;6.78;100.00;96678.53;4986517;28;20085;-71
2023/12/06 01:03:17;;;;;;;0.60;0.60;;;;;;;7.29;100.00;96773.88;4985021;28;20497;-71
2023/12/06 01:05:43;;;;;;;0.60;0.60;;;;;;;7.09;100.00;96782.38;4984835;28;20108;-71
2023/12/06 01:08:10;;;;;;;0.60;0.60;;;;;;;7.16;100.00;96777.84;4986075;28;20418;-71
2023/12/06 01:10:37;;;;;;;0.68;0.68;;;;;;;7.29;100.00;96782.13;5002962;28;20064;-71
2023/12/06 01:13:04;;;;;;;0.60;0.60;;;;;;;7.18;100.00;96731.47;5004261;28;20064;-72
2023/12/06 01:15:30;;;;;;;0.60;0.60;;;;;;;7.09;100.00;96695.06;5005601;28;20046;-71
2023/12/06 01:17:57;;;;;;;0.60;0.60;;;;;;;7.60;100.00;96765.56;5005572;28;20062;-71
2023/12/06 01:20:24;;;;;;;0.60;0.60;;;;;;;6.64;100.00;96625.13;5004411;28;20057;-71
2023/12/06 01:22:51;;;;;;;0.60;0.60;;;;;;;7.65;100.00;96746.00;5005960;28;20136;-73
2023/12/06 01:25:18;;;;;;;0.60;0.60;;;;;;;6.93;99.17;96655.72;5005671;28;20497;-71
2023/12/06 01:27:44;;;;;;;0.65;0.65;;;;;;;7.84;97.59;96755.50;5005584;28;20528;-71
2023/12/06 01:30:11;;;;;;;0.60;0.60;;;;;;;7.76;99.05;96753.72;5005323;28;20502;-71
2023/12/06 01:32:40;;;;;;;0.70;0.70;;;;;;;7.75;99.51;96750.16;5005644;28;20080;-71
2023/12/06 01:35:08;;;;;;;0.70;0.70;;;;;;;7.62;99.52;96730.19;5003851;28;20591;-70
2023/12/06 01:37:34;;;;;;;0.60;0.60;;;;;;;7.66;99.57;96731.09;5005203;28;20062;-70
2023/12/06 01:40:04;;;;;;;0.60;0.60;;;;;;;7.60;99.94;96720.69;5005682;28;20151;-71
2023/12/06 01:42:31;;;;;;;0.65;0.65;;;;;;;7.80;97.90;96724.28;5005257;28;20571;-71
2023/12/06 01:44:58;;;;;;;0.60;0.60;;;;;;;7.96;98.03;96738.81;5005529;28;20073;-71
2023/12/06 01:47:28;;;;;;;0.60;0.60;;;;;;;7.86;98.35;96739.38;5003470;28;20575;-70
2023/12/06 01:49:57;;;;;;;0.60;0.60;;;;;;;6.92;98.46;96607.34;5005359;28;20532;-70
2023/12/06 01:52:24;;;;;;;0.70;0.70;;;;;;;7.47;98.47;96677.84;5005231;28;20061;-71
2023/12/06 01:54:51;;;;;;;0.70;0.70;;;;;;;7.61;98.57;96705.75;5003509;28;20454;-71
2023/12/06 01:57:18;;;;;;;0.60;0.60;;;;;;;7.42;98.91;96676.19;5002775;28;20057;-70
2023/12/06 01:59:47;;;;;;;0.60;0.60;;;;;;;7.77;98.91;96697.41;4986072;28;20066;-71
2023/12/06 02:02:14;;;;;;;0.68;0.68;;;;;;;7.92;98.01;96715.88;4985192;28;20052;-70
2023/12/06 02:04:41;;;;;;;0.70;0.70;;;;;;;7.85;98.30;96719.28;4985266;28;20704;-70
2023/12/06 02:07:09;;;;;;;0.70;0.70;;;;;;;7.63;98.78;96698.69;4985437;28;20050;-69
2023/12/06 02:09:36;;;;;;;0.63;0.63;;;;;;;7.54;99.00;96684.31;4988292;28;20050;-71
2023/12/06 02:12:03;;;;;;;0.60;0.60;;;;;;;7.81;99.17;96721.16;5004872;28;20607;-71
2023/12/06 02:14:34;;;;;;;0.70;0.70;;;;;;;7.88;99.08;96713.03;5004329;28;20537;-69
2023/12/06 02:17:03;;;;;;;0.60;0.60;;;;;;;7.03;98.98;96580.03;5003315;28;20164;-70
2023/12/06 02:19:31;;;;;;;0.60;0.60;;;;;;;7.84;98.65;96708.63;5003278;28;20077;-70
2023/12/06 02:21:58;;;;;;;0.60;0.60;;;;;;;7.91;98.06;96700.47;5008568;28;20089;-70
2023/12/06 02:24:28;;;;;;;0.60;0.60;;;;;;;7.82;98.26;96703.47;5008546;28;20081;-70
2023/12/06 02:26:56;;;;;;;0.65;0.65;;;;;;;7.87;98.78;96694.09;5008523;28;20053;-70
2023/12/06 02:29:24;;;;;;;0.60;0.60;;;;;;;7.74;97.91;96661.13;5008652;28;20060;-70
2023/12/06 02:31:51;;;;;;;0.60;0.60;;;;;;;7.89;97.55;96694.56;5008593;28;20054;-70
2023/12/06 02:34:23;;;;;;;0.70;0.70;;;;;;;7.88;97.86;96715.00;5008565;28;20505;-70
2023/12/06 02:36:53;;;;;;;0.70;0.70;;;;;;;7.88;98.12;96698.44;5007218;28;20522;-71
2023/12/06 02:39:20;;;;;;;0.65;0.65;;;;;;;7.45;98.55;96628.63;5008953;28;20568;-69
2023/12/06 02:41:47;;;;;;;0.68;0.68;;;;;;;7.90;98.72;96685.09;5008229;28;20061;-72
2023/12/06 02:44:14;;;;;;;0.60;0.60;;;;;;;7.39;97.91;96616.28;5006956;28;20057;-71
2023/12/06 02:46:41;;;;;;;0.60;0.60;;;;;;;7.49;98.35;96643.25;5008427;28;20054;-71
2023/12/06 02:49:08;;;;;;;0.60;0.60;;;;;;;7.80;98.70;96674.63;5006909;28;20503;-71
2023/12/06 02:51:35;;;;;;;0.60;0.60;;;;;;;7.34;98.73;96586.25;5008483;28;20056;-72
2023/12/06 02:54:01;;;;;;;0.60;0.60;;;;;;;7.52;98.75;96626.00;5008721;28;20065;-72
2023/12/06 02:56:28;;;;;;;0.65;0.65;;;;;;;7.80;98.84;96669.13;5008433;28;20149;-71
2023/12/06 02:58:55;;;;;;;0.70;0.70;;;;;;;7.54;96.88;96593.38;5008200;28;20440;-72
2023/12/06 03:01:22;;;;;;;0.70;0.70;;;;;;;7.39;97.21;96577.72;5008187;28;20054;-70
2023/12/06 03:03:48;;;;;;;0.70;0.70;;;;;;;7.70;98.35;96665.78;5008024;28;20050;-71
2023/12/06 03:06:15;;;;;;;0.70;0.70;;;;;;;6.58;99.16;96476.00;5006443;28;20060;-71
2023/12/06 03:08:42;;;;;;;0.70;0.70;;;;;;;7.21;98.43;96548.97;5008263;28;20062;-70
2023/12/06 03:11:09;;;;;;;0.70;0.70;;;;;;;7.81;97.71;96643.94;5007661;28;20062;-70
2023/12/06 03:13:36;;;;;;;0.70;0.70;;;;;;;7.80;98.40;96653.41;5008023;28;20052;-71
2023/12/06 03:16:03;;;;;;;0.70;0.70;;;;;;;7.83;98.23;96646.34;5007789;28;20459;-69
2023/12/06 03:18:30;;;;;;;0.68;0.68;;;;;;;7.79;98.49;96646.28;5007472;28;20147;-69
2023/12/06 03:20:57;;;;;;;0.60;0.60;;;;;;;7.55;98.32;96610.72;5007554;28;20061;-70
2023/12/06 03:23:23;;;;;;;0.60;0.60;;;;;;;7.70;98.24;96660.28;5007841;28;20057;-70
2023/12/06 03:25:51;;;;;;;0.60;0.60;;;;;;;7.55;98.49;96630.81;5007303;28;20519;-70
2023/12/06 03:28:18;;;;;;;0.70;0.70;;;;;;;7.70;97.62;96642.94;5007489;28;20054;-69
2023/12/06 03:30:44;;;;;;;0.70;0.70;;;;;;;7.86;98.33;96667.69;5005978;28;20058;-70
2023/12/06 03:33:11;;;;;;;0.60;0.60;;;;;;;7.77;99.40;96669.84;5006212;28;20120;-69
2023/12/06 03:35:38;;;;;;;0.68;0.68;;;;;;;7.85;98.96;96671.59;5007645;28;20064;-69
2023/12/06 03:38:05;;;;;;;0.60;0.60;;;;;;;7.81;99.03;96690.03;5006843;28;20066;-70
2023/12/06 03:40:32;;;;;;;0.65;0.65;;;;;;;7.88;97.90;96670.88;5005958;28;20053;-70
2023/12/06 03:42:58;;;;;;;0.70;0.70;;;;;;;7.19;97.83;96573.31;5007501;28;20056;-70
2023/12/06 03:45:25;;;;;;;0.63;0.63;;;;;;;7.87;98.67;96674.81;5005700;28;20520;-70
2023/12/06 03:47:52;;;;;;;0.68;0.68;;;;;;;7.82;98.89;96683.34;5007243;28;20493;-71
2023/12/06 03:50:19;;;;;;;0.70;0.70;;;;;;;7.23;98.60;96573.41;5005385;28;20091;-71
2023/12/06 03:52:46;;;;;;;0.60;0.60;;;;;;;7.36;98.70;96578.44;5006845;28;20062;-71
2023/12/06 03:55:13;;;;;;;0.60;0.60;;;;;;;7.85;98.43;96649.53;5006629;28;20081;-69
2023/12/06 03:57:40;;;;;;;0.63;0.63;;;;;;;7.82;98.65;96651.09;5005283;28;20049;-69
2023/12/06 04:00:07;;;;;;;0.65;0.65;;;;;;;7.51;98.75;96613.41;5005721;28;20096;-70
2023/12/06 04:02:34;;;;;;;0.70;0.70;;;;;;;7.63;98.31;96616.00;4987512;28;20580;-70
2023/12/06 04:05:01;;;;;;;0.70;0.70;;;;;;;7.90;98.50;96646.50;4985976;28;20124;-71
2023/12/06 04:07:28;;;;;;;0.60;0.60;;;;;;;7.95;97.90;96655.28;4986911;28;20574;-71
2023/12/06 04:09:55;;;;;;;0.70;0.70;;;;;;;8.08;94.90;96650.44;4988982;28;20046;-71
2023/12/06 04:12:22;;;;;;;0.65;0.65;;;;;;;7.93;96.64;96662.31;5006615;28;20054;-70
2023/12/06 04:14:49;;;;;;;0.65;0.65;;;;;;;7.22;97.37;96556.06;5006808;28;20085;-70
2023/12/06 04:17:15;;;;;;;0.60;0.60;;;;;;;7.90;98.04;96652.03;5005339;28;20350;-70
2023/12/06 04:19:42;;;;;;;0.70;0.70;;;;;;;7.36;97.55;96588.66;5005520;28;20065;-70
2023/12/06 04:22:09;;;;;;;0.70;0.70;;;;;;;7.34;100.00;96641.38;5005220;28;20129;-72
2023/12/06 04:24:39;;;;;;;0.60;0.60;;;;;;;7.39;100.00;96654.88;5006373;28;20073;-72
2023/12/06 04:27:06;;;;;;;0.50;0.50;;;;;;;7.50;100.00;96657.84;5021298;28;20108;-70
2023/12/06 04:29:33;;;;;;;0.60;0.60;;;;;;;7.44;100.00;96668.38;5006231;28;20132;-71
2023/12/06 04:32:00;;;;;;;0.60;0.60;;;;;;;7.27;100.00;96662.44;5006633;28;20046;-71
2023/12/06 04:34:26;;;;;;;0.50;0.50;;;;;;;7.15;100.00;96638.56;5006152;28;20133;-70
2023/12/06 04:36:54;;;;;;;0.70;0.70;;;;;;;7.52;100.00;96658.31;5004899;28;20057;-72
2023/12/06 04:39:21;;;;;;;0.60;0.60;;;;;;;7.32;100.00;96649.19;5006332;28;20054;-71
2023/12/06 04:41:48;;;;;;;0.60;0.60;;;;;;;7.36;100.00;96643.75;5005717;28;20054;-70
2023/12/06 04:44:15;;;;;;;0.60;0.60;;;;;;;6.81;100.00;96550.44;5004316;28;20114;-71
2023/12/06 04:46:43;;;;;;;0.60;0.60;;;;;;;7.27;100.00;96641.19;5006385;28;20203;-71
2023/12/06 04:49:10;;;;;;;0.60;0.60;;;;;;;7.47;100.00;96648.34;5006240;28;20079;-71
2023/12/06 04:51:37;;;;;;;0.60;0.60;;;;;;;6.99;100.00;96579.16;5005853;28;20111;-70
2023/12/06 04:54:04;;;;;;;0.60;0.60;;;;;;;7.27;100.00;96602.63;5005832;28;20054;-71
2023/12/06 04:56:31;;;;;;;0.60;0.60;;;;;;;7.57;100.00;96645.03;5005760;28;20143;-71
2023/12/06 04:58:58;;;;;;;0.60;0.60;;;;;;;7.60;100.00;96660.06;5006153;28;20085;-71
2023/12/06 05:01:24;;;;;;;0.60;0.60;;;;;;;7.61;99.84;96645.09;5005722;28;20057;-73
2023/12/06 05:03:51;;;;;;;0.60;0.60;;;;;;;7.15;100.00;96577.97;4996561;28;20062;-72
2023/12/06 05:06:18;;;;;;;0.60;0.60;;;;;;;7.78;98.27;96638.38;5004187;28;20539;-72
2023/12/06 05:08:45;;;;;;;0.70;0.70;;;;;;;7.42;98.51;96603.75;5005785;28;20112;-72
2023/12/06 05:11:12;;;;;;;0.60;0.60;;;;;;;6.80;99.33;96513.84;5019055;28;20046;-73
2023/12/06 05:13:38;;;;;;;0.60;0.60;;;;;;;7.57;100.00;96638.72;5025678;28;20053;-71
2023/12/06 05:16:05;;;;;;;0.60;0.60;;;;;;;7.64;100.00;96645.19;5024384;28;20073;-71
2023/12/06 05:18:32;;;;;;;0.60;0.60;;;;;;;7.61;100.00;96645.91;5024156;28;20077;-71
2023/12/06 05:20:59;;;;;;;0.60;0.60;;;;;;;7.30;100.00;96590.88;5025061;28;20136;-71
2023/12/06 05:23:26;;;;;;;0.60;0.60;;;;;;;7.72;100.00;96635.91;5024124;28;20050;-72
2023/12/06 05:25:53;;;;;;;0.65;0.65;;;;;;;5.55;100.00;96289.72;5024014;28;20057;-71
2023/12/06 05:28:19;;;;;;;0.60;0.60;;;;;;;7.73;99.70;96631.97;5025521;28;20053;-71
2023/12/06 05:30:46;;;;;;;0.65;0.65;;;;;;;6.85;100.00;96491.53;5023665;28;20081;-72
2023/12/06 05:33:13;;;;;;;0.60;0.60;;;;;;;7.59;99.76;96603.31;5025163;28;20049;-72
2023/12/06 05:35:40;;;;;;;0.70;0.70;;;;;;;7.30;99.59;96560.59;5025070;28;20045;-72
2023/12/06 05:38:06;;;;;;;0.60;0.60;;;;;;;6.95;99.70;96496.50;5024892;28;20049;-71
2023/12/06 05:40:33;;;;;;;0.70;0.70;;;;;;;7.67;99.74;96611.38;5024830;28;20139;-71
2023/12/06 05:43:00;;;;;;;0.60;0.60;;;;;;;7.32;99.80;96561.03;5025124;28;20072;-72
2023/12/06 05:45:27;;;;;;;0.60;0.60;;;;;;;7.77;99.56;96628.50;5023651;28;20060;-72
2023/12/06 05:47:54;;;;;;;0.60;0.60;;;;;;;7.45;99.98;96573.50;5023847;28;20695;-72
2023/12/06 05:50:21;;;;;;;0.60;0.60;;;;;;;7.83;99.92;96629.81;5021806;28;20468;-71
2023/12/06 05:52:49;;;;;;;0.68;0.68;;;;;;;7.81;99.48;96637.66;5023132;28;20495;-72
2023/12/06 05:55:19;;;;;;;0.65;0.65;;;;;;;7.85;99.84;96639.31;5017673;28;20570;-70
2023/12/06 05:57:46;;;;;;;0.60;0.60;;;;;;;7.75;100.00;96634.38;5023463;28;20479;-71
2023/12/06 06:00:13;;;;;;;0.60;0.60;;;;;;;7.79;100.00;96624.25;5022083;28;20614;-70
2023/12/06 06:02:43;;;;;;;0.60;0.60;;;;;;;7.87;99.89;96636.22;5024112;28;20065;-73
2023/12/06 06:05:10;;;;;;;0.60;0.60;;;;;;;7.83;99.76;96635.31;5025010;28;20103;-71
2023/12/06 06:07:38;;;;;;;0.70;0.70;;;;;;;7.83;99.95;96644.41;5025269;28;20129;-71
2023/12/06 06:10:07;;;;;;;0.60;0.60;;;;;;;7.39;99.58;96588.75;5023199;28;20068;-73
2023/12/06 06:12:35;;;;;;;0.65;0.65;;;;;;;7.91;99.19;96648.09;5023355;28;20057;-70
2023/12/06 06:15:02;;;;;;;0.60;0.60;;;;;;;7.14;98.96;96535.06;5024807;28;20049;-70
2023/12/06 06:17:29;;;;;;;0.60;0.60;;;;;;;7.89;99.44;96639.41;5025061;28;20049;-71
2023/12/06 06:19:55;;;;;;;0.60;0.60;;;;;;;7.95;98.76;96647.00;5024823;28;20061;-72
2023/12/06 06:22:22;;;;;;;0.60;0.60;;;;;;;8.01;98.40;96658.56;5022969;28;20085;-71
2023/12/06 06:24:49;;;;;;;0.60;0.60;;;;;;;7.97;99.29;96675.03;5023210;28;20134;-73
2023/12/06 06:27:16;;;;;;;0.70;0.70;;;;;;;8.03;98.86;96650.72;5024493;28;20045;-72
2023/12/06 06:29:44;;;;;;;0.60;0.60;;;;;;;8.00;99.21;96640.41;5024211;28;20057;-71
2023/12/06 06:32:11;;;;;;;0.70;0.70;;;;;;;7.81;99.19;96623.88;5024614;28;20054;-71
2023/12/06 06:34:37;;;;;;;0.70;0.70;;;;;;;6.61;99.21;96475.25;5024222;28;20049;-71
2023/12/06 06:37:09;;;;;;;0.60;0.60;;;;;;;7.66;99.55;96598.78;5023959;28;20065;-70
2023/12/06 06:39:36;;;;;;;0.60;0.60;;;;;;;8.03;99.00;96653.47;5024049;28;20115;-70
2023/12/06 06:42:03;;;;;;;0.70;0.70;;;;;;;7.92;99.25;96639.47;5022740;28;20653;-71
2023/12/06 06:44:30;;;;;;;0.70;0.70;;;;;;;8.00;99.55;96645.94;5024031;28;20054;-70
2023/12/06 06:46:57;;;;;;;0.60;0.60;;;;;;;8.11;99.40;96657.97;5024050;28;20057;-71
2023/12/06 06:49:24;;;;;;;0.65;0.65;;;;;;;7.98;99.47;96637.22;5022755;28;20492;-71
2023/12/06 06:51:51;;;;;;;0.60;0.60;;;;;;;8.24;99.46;96667.72;5024188;28;20053;-72
2023/12/06 06:54:18;;;;;;;0.68;0.68;;;;;;;8.29;98.98;96656.38;5024156;28;20140;-71
2023/12/06 06:56:45;;;;;;;0.60;0.60;;;;;;;8.36;99.16;96671.09;5023947;28;20060;-73
2023/12/06 06:59:12;;;;;;;0.60;0.60;;;;;;;8.38;99.54;96662.47;5004383;28;20049;-69
2023/12/06 07:01:39;;;;;;;0.65;0.65;;;;;;;8.21;98.16;96657.38;5004123;28;20070;-71
2023/12/06 07:04:06;;;;;;;0.60;0.60;;;;;;;7.63;98.11;96533.31;5003939;28;20104;-69
2023/12/06 07:06:33;;;;;;;0.60;0.60;;;;;;;7.51;97.40;96502.38;5004454;28;20062;-69
2023/12/06 07:09:00;;;;;;;0.70;0.70;;;;;;;7.97;96.78;96566.66;5007266;28;20500;-69
2023/12/06 07:11:29;;;;;;;0.60;0.60;;;;;;;7.69;98.80;96625.63;5015303;28;20160;-71
2023/12/06 07:13:56;;;;;;;0.70;0.70;;;;;;;7.16;99.57;96543.75;5023047;28;20111;-74
2023/12/06 07:16:27;;;;;;;0.70;0.70;;;;;;;7.76;100.00;96643.47;5006999;28;20045;-72
2023/12/06 07:18:54;;;;;;;0.60;0.60;;;;;;;8.13;99.35;96661.16;5022718;28;20146;-66
2023/12/06 07:21:21;;;;;;;0.68;0.68;;;;;;;8.22;98.56;96659.00;5025519;28;20140;-69
2023/12/06 07:23:48;;;;;;;0.70;0.70;;;;;;;7.42;98.29;96532.91;5019067;28;20056;-69
2023/12/06 07:26:15;;;;;;;0.70;0.70;;;;;;;8.25;97.94;96658.28;5006982;28;20053;-68
2023/12/06 07:28:41;;;;;;;0.68;0.68;;;;;;;8.10;98.32;96617.75;5011327;28;20160;-62
2023/12/06 07:31:08;;;;;;;0.60;0.60;;;;;;;7.90;98.13;96564.59;5022472;28;20041;-71
2023/12/06 07:33:35;;;;;;;0.70;0.70;;;;;;;8.59;97.73;96657.34;5022093;28;20169;-69
2023/12/06 07:36:03;;;;;;;0.70;0.70;;;;;;;7.95;96.74;96604.84;5007313;28;20077;-68
2023/12/06 07:38:30;;;;;;;0.70;0.70;;;;;;;7.83;100.00;96654.63;5017541;28;20057;-66
2023/12/06 07:40:57;;;;;;;0.70;0.70;;;;;;;7.23;100.00;96574.22;5026883;28;20061;-68
2023/12/06 07:43:25;;;;;;;0.70;0.70;;;;;;;7.94;100.00;96652.88;5021612;28;20432;-63
2023/12/06 07:45:52;;;;;;;0.70;0.70;;;;;;;7.15;100.00;96588.97;5021040;28;20049;-66
2023/12/06 07:48:18;;;;;;;0.60;0.60;;;;;;;7.33;100.00;96653.53;5012369;28;20077;-64
2023/12/06 07:50:45;;;;;;;0.70;0.70;;;;;;;7.24;100.00;96646.63;5008217;28;20056;-71
2023/12/06 07:53:13;;;;;;;0.60;0.60;;;;;;;7.45;100.00;96647.91;5025218;28;20042;-62
2023/12/06 07:55:40;;;;;;;0.60;0.60;;;;;;;7.36;100.00;96666.59;5026310;28;20096;-70
2023/12/06 07:58:07;;;;;;;0.60;0.60;;;;;;;7.09;100.00;96606.94;5026173;28;20093;-66
2023/12/06 08:00:36;;;;;;;0.70;0.70;;;;;;;7.56;100.00;96593.81;5025346;28;20566;-68
2023/12/06 08:03:05;;;;;;;0.60;0.60;;;;;;;8.11;100.00;96650.47;5025228;28;20050;-64
2023/12/06 08:05:31;;;;;;;0.70;0.70;;;;;;;8.33;100.00;96649.00;5024541;28;20131;-67
2023/12/06 08:07:58;;;;;;;0.60;0.60;;;;;;;8.44;100.00;96659.03;5023861;28;20103;-79
2023/12/06 08:10:28;;;;;;;0.60;0.60;;;;;;;8.60;100.00;96658.97;5016132;28;20057;-73
2023/12/06 08:12:55;;;;;;;0.70;0.70;;;;;;;8.15;100.00;96576.88;5017971;28;20053;-65
2023/12/06 08:15:22;;;;;;;0.68;0.68;;;;;;;8.49;99.13;96605.50;5005664;28;20056;-73
2023/12/06 08:17:49;;;;;;;0.70;0.70;;;;;;;8.97;97.96;96660.00;5020046;28;20053;-71
2023/12/06 08:20:17;;;;;;;0.70;0.70;;;;;;;9.04;96.82;96662.88;5006163;28;20046;-69
2023/12/06 08:22:44;;;;;;;0.70;0.70;;;;;;;9.22;95.25;96658.44;5012681;28;20049;-72
2023/12/06 08:25:11;;;;;;;0.65;0.65;;;;;;;9.27;94.38;96663.66;5023966;28;20057;-73
2023/12/06 08:27:38;;;;;;;0.70;0.70;;;;;;;9.17;94.02;96653.22;5024083;28;20049;-63
2023/12/06 08:30:06;;;;;;;0.70;0.70;;;;;;;9.20;93.02;96656.03;5007947;28;20185;-66
2023/12/06 08:32:33;;;;;;;0.73;0.73;;;;;;;8.53;92.75;96531.84;5020393;28;20045;-70
2023/12/06 08:35:02;;;;;;;0.70;0.70;;;;;;;9.28;92.86;96650.63;5018132;28;20503;-68
2023/12/06 08:37:29;;;;;;;0.70;0.70;;;;;;;9.15;91.30;96633.47;5023211;28;20057;-67
2023/12/06 08:39:56;;;;;;;0.70;0.70;;;;;;;8.70;93.97;96647.28;5005904;28;20092;-68
2023/12/06 08:42:23;;;;;;;0.70;0.70;;;;;;;8.43;95.43;96642.84;5010010;28;20057;-65
2023/12/06 08:44:50;;;;;;;0.70;0.70;;;;;;;8.18;96.57;96602.94;5024075;28;20508;-62
2023/12/06 08:47:19;;;;;;;0.70;0.70;;;;;;;8.79;95.95;96647.84;5020362;28;20132;-66
2023/12/06 08:49:45;;;;;;;0.73;0.73;;;;;;;8.56;94.72;96570.56;5012882;28;20516;-63
2023/12/06 08:52:13;;;;;;;0.70;0.70;;;;;;;8.77;93.62;96604.03;5006659;28;20077;-64
2023/12/06 08:54:40;;;;;;;0.70;0.70;;;;;;;8.55;94.72;96637.97;5004728;28;20054;-67
2023/12/06 08:57:07;;;;;;;0.63;0.63;;;;;;;8.92;95.29;96638.22;5006461;28;20351;-69
2023/12/06 08:59:34;;;;;;;0.70;0.70;;;;;;;8.31;94.59;96522.44;5023800;28;20417;-69
2023/12/06 09:02:01;;;;;;;0.80;0.80;;;;;;;8.50;95.52;96637.47;5008826;28;20060;-65
2023/12/06 09:04:28;;;;;;;0.70;0.70;;;;;;;8.48;95.80;96628.75;5024202;28;20054;-66
2023/12/06 09:06:56;;;;;;;0.70;0.70;;;;;;;8.36;96.71;96601.34;5018942;28;20400;-64
2023/12/06 09:09:23;;;;;;;0.68;0.68;;;;;;;8.37;96.88;96616.72;5017447;28;20140;-61
2023/12/06 09:11:50;;;;;;;0.70;0.70;;;;;;;8.60;97.18;96620.31;5019885;28;20075;-66
2023/12/06 09:14:18;;;;;;;0.70;0.70;;;;;;;8.62;96.31;96579.31;5016059;28;20180;-65
2023/12/06 09:16:45;;;;;;;0.70;0.70;;;;;;;8.94;95.74;96606.31;5011408;28;20050;-63
2023/12/06 09:19:12;;;;;;;0.70;0.70;;;;;;;8.99;94.69;96622.53;5013403;28;20408;-64
2023/12/06 09:21:41;;;;;;;0.70;0.70;;;;;;;8.44;94.14;96498.97;5012446;28;20496;-63
2023/12/06 09:24:10;;;;;;;0.70;0.70;;;;;;;9.23;93.52;96598.44;5005421;28;20147;-68
2023/12/06 09:26:38;;;;;;;0.70;0.70;;;;;;;9.33;92.17;96593.06;5017811;28;20053;-68
2023/12/06 09:29:08;;;;;;;0.70;0.70;;;;;;;8.92;90.95;96588.50;5008206;28;20085;-65
2023/12/06 09:31:37;;;;;;;0.70;0.70;;;;;;;9.27;91.40;96583.50;5010880;28;20041;-62
2023/12/06 09:34:04;;;;;;;0.70;0.70;;;;;;;8.83;90.90;96496.84;5022194;28;20060;-65
2023/12/06 09:36:31;;;;;;;0.73;0.73;;;;;;;9.36;90.79;96544.56;5016171;28;20128;-67
2023/12/06 09:39:00;;;;;;;0.73;0.73;;;;;;;9.03;90.15;96567.34;5004682;28;20049;-64
2023/12/06 09:41:28;;;;;;;0.73;0.73;;;;;;;8.63;94.56;96564.38;5010933;28;20069;-63
2023/12/06 09:43:57;;;;;;;0.70;0.70;;;;;;;8.58;93.75;96539.81;5024797;28;20058;-64
2023/12/06 09:46:24;;;;;;;0.60;0.60;;;;;;;8.66;92.96;96513.94;5024693;28;20064;-63
2023/12/06 09:48:51;;;;;;;0.70;0.70;;;;;;;7.58;95.07;96453.72;5024769;28;20053;-62
2023/12/06 09:51:19;;;;;;;0.60;0.60;;;;;;;8.23;97.79;96555.78;5024963;28;20085;-62
2023/12/06 09:53:46;;;;;;;0.60;0.60;;;;;;;8.77;96.04;96565.38;5019934;28;20141;-63
2023/12/06 09:56:14;;;;;;;0.70;0.70;;;;;;;9.06;94.07;96555.56;5003666;28;20050;-64
2023/12/06 09:58:43;;;;;;;0.70;0.70;;;;;;;9.20;92.12;96550.22;5018866;28;20132;-64
2023/12/06 10:01:11;;;;;;;0.70;0.70;;;;;;;8.87;93.92;96539.91;5024304;28;20142;-64
2023/12/06 10:03:40;;;;;;;0.70;0.70;;;;;;;8.00;96.39;96519.84;5024590;28;20531;-63
2023/12/06 10:06:08;;;;;;;0.70;0.70;;;;;;;8.60;94.63;96523.69;5024813;28;20666;-63
2023/12/06 10:08:37;;;;;;;0.70;0.70;;;;;;;8.42;93.65;96514.31;5024470;28;20091;-61
2023/12/06 10:11:09;;;;;;;0.70;0.70;;;;;;;9.06;93.85;96538.97;5024713;28;20172;-64
2023/12/06 10:13:38;;;;;;;0.70;0.70;;;;;;;9.43;92.39;96520.56;5011327;28;20063;-61
2023/12/06 10:16:21;;;;;;;0.65;0.65;;;;;;;9.19;89.33;96457.47;5004993;28;20136;-64
2023/12/06 10:18:52;;;;;;;0.80;0.80;;;;;;;9.57;88.02;96523.50;5004577;28;20058;-64
2023/12/06 10:21:20;;;;;;;0.70;0.70;;;;;;;9.84;87.33;96533.31;5003057;28;20263;-61
2023/12/06 10:24:00;;;;;;;0.77;0.77;;;;;;;9.70;86.82;96477.84;5014635;28;20053;-62
2023/12/06 10:26:28;;;;;;;0.70;0.70;;;;;;;9.85;85.31;96487.88;5007711;28;20042;-67
2023/12/06 10:28:58;;;;;;;0.80;0.80;;;;;;;10.09;83.91;96503.97;5007099;28;20085;-61
2023/12/06 10:31:26;;;;;;;0.80;0.80;;;;;;;10.36;84.23;96530.34;5012552;28;20045;-64
2023/12/06 10:33:55;;;;;;;0.80;0.80;;;;;;;10.31;83.29;96525.13;5011076;28;20053;-64
2023/12/06 10:36:25;;;;;;;0.70;0.70;;;;;;;9.72;84.77;96525.25;5018095;28;20132;-70
2023/12/06 10:38:55;;;;;;;0.80;0.80;;;;;;;9.04;83.40;96376.38;5010324;28;20054;-67
2023/12/06 10:41:25;;;;;;;0.80;0.80;;;;;;;10.17;83.16;96522.22;5020198;28;20050;-63
2023/12/06 10:43:56;;;;;;;0.70;0.70;;;;;;;10.09;83.68;96525.28;5023542;28;20096;-67
2023/12/06 10:46:24;;;;;;;0.80;0.80;;;;;;;10.11;83.24;96517.41;5019376;28;20048;-70
2023/12/06 10:48:56;;;;;;;0.80;0.80;;;;;;;9.79;83.99;96478.31;5013591;28;20137;-62
2023/12/06 10:51:24;;;;;;;0.80;0.80;;;;;;;10.15;83.54;96513.50;5024034;28;20100;-62
2023/12/06 10:53:54;;;;;;;0.80;0.80;;;;;;;9.96;84.05;96494.31;5026681;28;20061;-66
2023/12/06 10:56:21;;;;;;;0.77;0.77;;;;;;;9.97;83.04;96465.47;5016073;28;20049;-62
2023/12/06 10:58:50;;;;;;;0.70;0.70;;;;;;;9.82;83.23;96422.25;5009770;28;20064;-69
2023/12/06 11:01:18;;;;;;;0.70;0.70;;;;;;;10.39;83.14;96490.81;5007884;28;20058;-62
2023/12/06 11:03:45;;;;;;;0.80;0.80;;;;;;;10.15;83.12;96452.63;5025090;28;20077;-67
2023/12/06 11:06:44;;;;;;;0.80;0.80;;;;;;;10.11;83.06;96485.03;5025935;28;20117;-65
2023/12/06 11:09:14;;;;;;;0.80;0.80;;;;;;;9.57;85.47;96489.50;5021802;28;20057;-67
2023/12/06 11:11:56;;;;;;;0.80;0.80;;;;;;;9.22;88.71;96481.59;5015096;28;20060;-60
2023/12/06 11:15:00;;;;;;;0.73;0.73;;;;;;;9.22;88.13;96442.91;5025243;28;20063;-65
2023/12/06 11:17:45;;;;;;;0.80;0.80;;;;;;;9.12;88.28;96404.88;5014165;28;20575;-63
2023/12/06 11:20:14;;;;;;;0.70;0.70;;;;;;;9.27;86.39;96372.69;5012082;28;20141;-66
2023/12/06 11:22:42;;;;;;;0.80;0.80;;;;;;;9.72;87.39;96472.69;5013123;28;20545;-61
2023/12/06 11:25:23;;;;;;;0.80;0.80;;;;;;;10.01;86.78;96469.06;5026913;28;20563;-65
2023/12/06 11:27:50;;;;;;;0.80;0.80;;;;;;;10.24;86.16;96466.94;5008798;28;20133;-64
2023/12/06 11:30:17;;;;;;;0.77;0.77;;;;;;;9.95;85.12;96429.09;5009999;28;20072;-61
2023/12/06 11:32:45;;;;;;;0.80;0.80;;;;;;;9.87;84.19;96369.34;5022542;28;20530;-64
2023/12/06 11:35:12;;;;;;;0.80;0.80;;;;;;;10.63;83.43;96457.00;5006029;28;20053;-62
2023/12/06 11:37:39;;;;;;;0.80;0.80;;;;;;;10.68;83.14;96459.38;5012186;28;20068;-64
2023/12/06 11:40:18;;;;;;;0.77;0.77;;;;;;;10.29;82.89;96366.94;5024489;28;20520;-63
2023/12/06 11:43:00;;;;;;;0.80;0.80;;;;;;;10.78;82.36;96451.53;5021389;28;20046;-63